Informes METAR cercanos


LEVC - Manises, Valencia, ESPAÑA
Distance from station: NNE 72km
Actualización: 19/11/2018 18:30
Parcialmente nuboso
Parcialmente nuboso
 Viento del NNO
Viento: NNO 6 km/h
Temperatura: 15°C
Rocío: 10°C
Humedad: 72%
Barómetro: 1001 hPa
Clouds: Parcialmente nuboso
Visibility: 10 km
Cloud details: Algunas nubes 914 m
Parcialmente nuboso 1829 m
2018/11/19 17:30 LEVC 191730Z 34003KT 290V010 9999 FEW030 SCT060 15/10 Q1001 NOSIG
LEAL - El Altet, Alicante, ESPAÑA
Distance from station: S 70km
Actualización: 19/11/2018 18:30
Muy nuboso
Muy nuboso
 Viento del ONO
Viento: ONO 9 km/h
Temperatura: 14°C
Rocío: 12°C
Humedad: 88%
Barómetro: 1000 hPa
Clouds: Muy nuboso
Visibility: 10 km
Cloud details: Algunas nubes 610 m
Muy nuboso 1524 m
2018/11/19 17:30 LEAL 191730Z 29005KT 9999 FEW020 BKN050 14/12 Q1000 NOSIG
 
LELC - San Javier, Murcia, ESPAÑA
Distance from station: SSO 188km
Actualización: 19/11/2018 18:30
Lluvia débil, Algunas nubes
Lluvia débil, Algunas nubes
 Viento del ONO
Viento: ONO 7 km/h
Temperatura: 14°C
Rocío: 12°C
Humedad: 88%
Barómetro: 1001 hPa
Resumen: Lluvia débil
Clouds: Algunas nubes
Visibility: 10 km
Cloud details: Algunas nubes 1524 m
2018/11/19 17:30 LELC 191730Z 29004KT 9999 -RA FEW050 14/12 Q1001 NOSIG
LEAB - Los Llanos, Albacete, ESPAÑA
Distance from station: O 143km
Actualización: 19/11/2018 18:00
Parcialmente nuboso
Parcialmente nuboso
 Viento del NO
Viento: NO 17 km/h
Temperatura: 11°C
Rocío: 8°C
Humedad: 82%
Barómetro: 1001 hPa
Clouds: Parcialmente nuboso
Visibility: 10 km
Cloud details: Algunas nubes 914 m
Parcialmente nuboso 1494 m
2018/11/19 17:00 LEAB 191700Z 31009KT 9999 FEW030 SCT049 11/08 Q1001 NOSIG